Time;durP1;ratioP1;P1;durP2;ratioP2;P2;SDS_P1;SDS_P2;PMS_P1;PMS_P2;Temp;Humidity;BMP_temperature;BMP_pressure;BME280_temperature;BME280_humidity;BME280_pressure;Samples;Min_cycle;Max_cycle;Signal;HPM_P1;HPM_P2
2022/03/12 00:01:45;;;;;;;10.83;5.23;;;;;;;-2.62;96.64;101822.41;5032032;28;20032;-76
2022/03/12 00:04:11;;;;;;;10.60;5.30;;;;;;;-2.52;96.76;101831.88;5019296;28;20514;-76
2022/03/12 00:06:36;;;;;;;9.63;5.50;;;;;;;-2.47;96.94;101825.75;5032280;28;20041;-76
2022/03/12 00:09:03;;;;;;;10.23;4.83;;;;;;;-2.41;95.46;101819.56;5031736;28;20112;-76
2022/03/12 00:11:49;;;;;;;11.43;5.07;;;;;;;-2.49;95.42;101817.06;5031471;28;20048;-76
2022/03/12 00:14:15;;;;;;;9.67;5.13;;;;;;;-2.41;94.98;101817.03;5030349;28;20038;-76
2022/03/12 00:16:41;;;;;;;9.20;5.30;;;;;;;-2.83;96.46;101823.44;5031784;28;20064;-76
2022/03/12 00:19:07;;;;;;;10.13;5.23;;;;;;;-2.74;96.75;101820.13;5031894;28;20083;-75
2022/03/12 00:21:35;;;;;;;9.27;4.73;;;;;;;-2.83;96.16;101814.94;5030348;28;20034;-76
2022/03/12 00:24:06;;;;;;;7.65;4.38;;;;;;;-2.70;96.18;101825.69;5032118;28;20071;-73
2022/03/12 00:26:33;;;;;;;9.30;4.97;;;;;;;-2.85;96.17;101806.31;5031585;28;20029;-75
2022/03/12 00:28:59;;;;;;;9.70;5.47;;;;;;;-2.67;97.05;101823.50;5031674;28;20026;-78
2022/03/12 00:31:25;;;;;;;9.77;5.00;;;;;;;-2.71;98.46;101810.38;5013793;28;20036;-77
2022/03/12 00:33:51;;;;;;;10.27;5.53;;;;;;;-3.18;99.87;101812.75;5013753;28;20029;-77
2022/03/12 00:36:17;;;;;;;10.00;5.43;;;;;;;-3.48;100.00;101790.84;5031484;28;20021;-77
2022/03/12 00:38:44;;;;;;;9.67;5.87;;;;;;;-3.48;100.00;101811.06;5013631;28;20032;-74
2022/03/12 00:41:11;;;;;;;11.13;6.50;;;;;;;-3.45;100.00;101810.50;5008895;28;20041;-74
2022/03/12 00:43:36;;;;;;;10.60;5.87;;;;;;;-3.49;100.00;101795.75;5008900;28;20041;-72
2022/03/12 00:46:05;;;;;;;9.13;5.50;;;;;;;-3.33;100.00;101809.38;5008335;28;20050;-76
2022/03/12 00:48:31;;;;;;;12.03;6.77;;;;;;;-3.35;100.00;101810.84;5008573;28;20040;-75
2022/03/12 00:50:57;;;;;;;11.30;6.20;;;;;;;-3.45;100.00;101795.34;5005751;28;20126;-74
2022/03/12 00:53:22;;;;;;;11.20;5.57;;;;;;;-3.50;100.00;101784.75;5008038;28;20112;-74
2022/03/12 00:55:48;;;;;;;12.27;6.07;;;;;;;-3.35;100.00;101799.84;5008055;28;20500;-75
2022/03/12 00:58:13;;;;;;;12.30;6.43;;;;;;;-3.59;100.00;101769.47;5004936;28;20141;-74
2022/03/12 01:00:39;;;;;;;11.37;6.27;;;;;;;-3.62;100.00;101790.91;4990960;28;20049;-74
2022/03/12 01:03:04;;;;;;;11.67;6.53;;;;;;;-3.84;100.00;101783.38;5008573;28;20042;-75
2022/03/12 01:06:00;;;;;;;15.43;7.63;;;;;;;-3.73;100.00;101789.69;5007888;28;20092;-75
2022/03/12 01:08:27;;;;;;;14.67;8.77;;;;;;;-3.59;100.00;101787.13;4930248;29;20083;-75
2022/03/12 01:10:55;;;;;;;14.17;7.70;;;;;;;-3.78;100.00;101774.00;4928959;29;20593;-76
2022/03/12 01:13:21;;;;;;;11.00;5.93;;;;;;;-3.82;100.00;101793.69;4933251;29;20039;-75
2022/03/12 01:15:49;;;;;;;10.97;6.63;;;;;;;-3.88;100.00;101795.50;4933421;29;20055;-75
2022/03/12 01:18:20;;;;;;;14.60;6.50;;;;;;;-3.83;100.00;101794.41;4947057;29;20043;-75
2022/03/12 01:20:46;;;;;;;10.40;6.27;;;;;;;-3.79;100.00;101801.59;4949415;29;20612;-75
2022/03/12 01:23:14;;;;;;;14.33;7.37;;;;;;;-3.74;100.00;101800.50;4949338;29;20027;-76
2022/03/12 01:25:40;;;;;;;10.80;6.17;;;;;;;-4.16;100.00;101803.28;4949578;29;20035;-75
2022/03/12 01:28:08;;;;;;;12.73;6.67;;;;;;;-4.30;100.00;101781.47;4949464;29;20039;-75
2022/03/12 01:30:34;;;;;;;13.80;6.83;;;;;;;-4.21;100.00;101804.34;4924359;29;20446;-76
2022/03/12 01:33:00;;;;;;;13.10;5.93;;;;;;;-4.52;100.00;101789.75;4947103;29;20127;-76
2022/03/12 01:35:26;;;;;;;14.43;6.53;;;;;;;-4.60;100.00;101791.34;4949222;29;20118;-76
2022/03/12 01:37:52;;;;;;;10.90;6.30;;;;;;;-4.48;100.00;101802.91;4948693;29;20043;-76
2022/03/12 01:40:18;;;;;;;11.27;6.23;;;;;;;-4.66;100.00;101801.63;4933102;29;20033;-77
2022/03/12 01:42:44;;;;;;;12.87;6.60;;;;;;;-4.57;100.00;101794.25;4949266;29;20471;-76
2022/03/12 01:45:11;;;;;;;14.40;7.37;;;;;;;-4.65;100.00;101782.34;5002250;28;20037;-75
2022/03/12 01:47:36;;;;;;;11.43;6.70;;;;;;;-4.74;100.00;101754.44;5015918;28;20105;-75
2022/03/12 01:50:03;;;;;;;11.33;6.03;;;;;;;-4.61;100.00;101799.63;5033638;28;20047;-75
2022/03/12 01:52:30;;;;;;;16.60;6.30;;;;;;;-4.59;100.00;101803.25;4999691;28;20121;-74
2022/03/12 01:54:56;;;;;;;9.80;6.27;;;;;;;-4.63;100.00;101794.41;5033646;28;20033;-74
2022/03/12 01:57:22;;;;;;;10.07;6.33;;;;;;;-4.67;100.00;101789.75;5033551;28;20097;-74
2022/03/12 01:59:48;;;;;;;13.33;6.40;;;;;;;-4.63;100.00;101809.53;5032470;28;20052;-75
2022/03/12 02:05:37;;;;;;;11.17;6.87;;;;;;;-4.80;100.00;101817.59;5052825;23;20646;-76
2022/03/12 02:08:03;;;;;;;15.73;10.57;;;;;;;-4.86;100.00;101811.81;5034421;28;20025;-76
2022/03/12 02:10:29;;;;;;;12.27;8.23;;;;;;;-5.19;100.00;101769.28;5032665;28;20103;-76
2022/03/12 02:12:55;;;;;;;10.00;5.73;;;;;;;-5.13;100.00;101792.69;5033873;28;20026;-75
2022/03/12 02:15:22;;;;;;;12.40;6.57;;;;;;;-4.92;100.00;101803.53;5031961;28;20025;-75
2022/03/12 02:17:50;;;;;;;12.50;6.83;;;;;;;-5.04;100.00;101801.34;5013389;28;20053;-75
2022/03/12 02:20:17;;;;;;;11.70;6.93;;;;;;;-5.03;100.00;101813.22;5013568;28;20495;-75
2022/03/12 02:22:45;;;;;;;12.47;7.10;;;;;;;-5.07;100.00;101816.09;5013679;28;20053;-76
2022/03/12 02:25:12;;;;;;;10.80;6.47;;;;;;;-5.22;100.00;101796.59;5013517;28;20061;-76
2022/03/12 02:27:37;;;;;;;12.40;7.33;;;;;;;-5.20;100.00;101803.66;5013514;28;20459;-76
2022/03/12 02:30:08;;;;;;;14.90;8.07;;;;;;;-5.10;100.00;101818.22;5013261;28;20442;-75
2022/03/12 02:32:36;;;;;;;13.37;7.63;;;;;;;-5.22;100.00;101807.59;5011934;28;20022;-77
2022/03/12 02:35:02;;;;;;;12.97;6.80;;;;;;;-5.39;100.00;101787.03;5013325;28;20034;-77
2022/03/12 02:37:32;;;;;;;10.00;6.07;;;;;;;-5.19;100.00;101796.97;5015789;28;20022;-76
2022/03/12 02:40:01;;;;;;;12.30;6.63;;;;;;;-5.05;100.00;101806.19;5015762;28;20057;-75
2022/03/12 02:42:28;;;;;;;14.07;6.83;;;;;;;-5.21;100.00;101793.38;5032787;28;20026;-76
2022/03/12 02:44:54;;;;;;;14.37;8.23;;;;;;;-5.11;100.00;101781.19;5015786;28;20451;-78
2022/03/12 02:47:22;;;;;;;14.43;8.83;;;;;;;-5.14;100.00;101783.31;5032919;28;20181;-78
2022/03/12 02:49:51;;;;;;;10.70;6.37;;;;;;;-5.22;100.00;101815.13;5033308;28;20101;-75
2022/03/12 02:52:18;;;;;;;13.95;6.65;;;;;;;-5.28;100.00;101814.38;5015288;28;20021;-76
2022/03/12 02:54:48;;;;;;;12.00;5.83;;;;;;;-5.18;100.00;101806.34;5033115;28;20033;-73
2022/03/12 02:57:14;;;;;;;12.50;7.40;;;;;;;-5.04;100.00;101810.53;5014710;28;20128;-73
2022/03/12 02:59:43;;;;;;;10.27;6.13;;;;;;;-5.00;100.00;101811.78;5033380;28;20025;-74
2022/03/12 03:02:09;;;;;;;10.30;6.35;;;;;;;-4.86;100.00;101821.91;5033417;28;20032;-74
2022/03/12 03:04:36;;;;;;;11.47;6.80;;;;;;;-4.69;100.00;101813.84;5033214;28;20612;-74
2022/03/12 03:07:06;;;;;;;10.43;6.40;;;;;;;-4.87;100.00;101820.13;5033059;28;20539;-74
2022/03/12 03:09:32;;;;;;;15.70;9.23;;;;;;;-5.01;100.00;101789.84;5032963;28;20025;-74
2022/03/12 03:12:02;;;;;;;15.43;7.47;;;;;;;-4.90;100.00;101767.75;4998248;28;20050;-73
2022/03/12 03:14:28;;;;;;;13.53;7.40;;;;;;;-4.64;100.00;101809.38;5033103;28;20029;-73
2022/03/12 03:16:54;;;;;;;14.63;6.87;;;;;;;-4.72;100.00;101809.34;5033068;28;20029;-73
2022/03/12 03:19:25;;;;;;;10.40;6.53;;;;;;;-4.97;100.00;101807.13;5032940;28;20072;-73
2022/03/12 03:21:53;;;;;;;11.13;6.47;;;;;;;-5.21;100.00;101816.03;5032836;28;20029;-73
2022/03/12 03:24:18;;;;;;;10.57;6.40;;;;;;;-5.55;100.00;101805.25;5033078;28;20113;-74
2022/03/12 03:26:44;;;;;;;17.97;9.87;;;;;;;-5.58;100.00;101821.59;5032800;28;20108;-73
2022/03/12 03:29:10;;;;;;;11.20;6.67;;;;;;;-6.19;100.00;101779.03;5033151;28;20033;-73
2022/03/12 03:31:36;;;;;;;10.37;6.80;;;;;;;-5.91;100.00;101825.16;5032803;28;20025;-73
2022/03/12 03:34:02;;;;;;;13.87;9.30;;;;;;;-6.13;100.00;101821.66;5032666;28;20402;-73
2022/03/12 03:36:28;;;;;;;13.83;10.27;;;;;;;-6.24;100.00;101799.28;5032538;28;20116;-74
2022/03/12 03:38:53;;;;;;;12.43;6.70;;;;;;;-6.30;100.00;101818.63;5032533;28;20117;-73
2022/03/12 03:41:19;;;;;;;11.73;6.30;;;;;;;-6.67;100.00;101764.66;5032523;28;20059;-73
2022/03/12 03:43:47;;;;;;;11.23;5.93;;;;;;;-6.27;100.00;101829.06;5032322;28;20460;-74
2022/03/12 03:46:16;;;;;;;14.90;6.57;;;;;;;-6.41;100.00;101822.31;5032830;28;20048;-73
2022/03/12 03:48:42;;;;;;;9.80;4.77;;;;;;;-6.52;99.07;101785.78;5032653;28;20420;-75
2022/03/12 03:51:08;;;;;;;10.53;5.80;;;;;;;-6.42;98.59;101815.47;5023947;28;20038;-73
2022/03/12 03:53:33;;;;;;;15.53;6.70;;;;;;;-6.35;97.64;101823.97;5021131;28;20547;-73
2022/03/12 03:56:00;;;;;;;19.23;7.40;;;;;;;-6.26;96.44;101823.34;5032274;28;20116;-73
2022/03/12 03:58:27;;;;;;;10.67;4.90;;;;;;;-6.11;95.38;101826.88;5032114;28;20033;-73
2022/03/12 04:01:01;;;;;;;14.13;5.20;;;;;;;-6.11;94.45;101806.75;5025267;28;20034;-73
2022/03/12 04:03:32;;;;;;;9.53;4.70;;;;;;;-6.03;93.72;101814.53;5012121;28;20026;-73
2022/03/12 04:05:59;;;;;;;10.27;4.43;;;;;;;-6.13;92.38;101790.56;5011738;28;20479;-73
2022/03/12 04:08:24;;;;;;;46.50;24.60;;;;;;;-5.99;91.10;101832.50;5011796;28;20033;-73
2022/03/12 04:10:50;;;;;;;16.00;7.70;;;;;;;-5.96;89.97;101822.81;5011934;28;20037;-74
2022/03/12 04:13:18;;;;;;;9.70;6.80;;;;;;;-5.96;90.58;101835.38;5011806;28;20068;-73
2022/03/12 04:15:44;;;;;;;13.00;9.30;;;;;;;-5.96;89.64;101831.25;5012071;28;20088;-73
2022/03/12 04:18:10;;;;;;;11.73;9.53;;;;;;;-6.21;87.84;101772.03;4994159;28;20382;-73
2022/03/12 04:20:36;;;;;;;22.40;13.27;;;;;;;-6.74;88.37;101692.66;5012014;28;20033;-74
2022/03/12 04:23:02;;;;;;;17.17;8.43;;;;;;;-5.77;86.86;101844.50;5019271;28;20033;-73
2022/03/12 04:25:31;;;;;;;12.90;7.30;;;;;;;-5.55;87.48;101837.09;4982272;28;20050;-74
2022/03/12 04:27:57;;;;;;;11.27;6.93;;;;;;;-5.37;87.25;101831.78;5018058;28;20045;-73
2022/03/12 04:30:23;;;;;;;12.00;6.93;;;;;;;-5.15;86.67;101841.94;5011717;28;20060;-73
2022/03/12 04:32:49;;;;;;;11.33;6.17;;;;;;;-4.99;85.94;101826.19;5011552;28;20105;-73
2022/03/12 04:35:19;;;;;;;12.67;5.97;;;;;;;-4.83;84.27;101836.50;4993126;28;20049;-74
2022/03/12 04:37:45;;;;;;;15.25;6.82;;;;;;;-4.88;82.74;101843.50;5010175;28;20033;-73
2022/03/12 04:40:15;;;;;;;9.73;5.40;;;;;;;-5.06;82.38;101825.44;5011481;28;20030;-73
2022/03/12 04:42:44;;;;;;;11.63;5.50;;;;;;;-5.41;82.84;101743.13;5011507;28;20088;-73
2022/03/12 04:45:15;;;;;;;11.32;5.20;;;;;;;-5.14;84.09;101848.78;5011336;28;20037;-74
2022/03/12 04:47:42;;;;;;;11.63;5.60;;;;;;;-5.45;84.17;101852.59;5011317;28;20038;-73
2022/03/12 04:50:09;;;;;;;11.70;5.80;;;;;;;-5.52;86.10;101862.59;5011297;28;20052;-73
2022/03/12 04:52:35;;;;;;;13.83;7.83;;;;;;;-5.42;86.30;101858.03;5011428;28;20109;-73
2022/03/12 04:55:07;;;;;;;19.23;8.00;;;;;;;-5.27;85.89;101864.03;5011376;28;20026;-73
2022/03/12 04:57:34;;;;;;;12.77;7.80;;;;;;;-5.27;85.90;101873.19;4993130;28;20038;-73
2022/03/12 05:00:03;;;;;;;15.20;7.80;;;;;;;-5.22;85.57;101873.03;5010902;28;20408;-73
2022/03/12 05:02:29;;;;;;;10.02;6.13;;;;;;;-5.45;85.77;101821.50;5011246;28;20065;-74
2022/03/12 05:04:54;;;;;;;11.30;6.50;;;;;;;-5.38;86.50;101842.56;5011280;28;20104;-73
2022/03/12 05:07:20;;;;;;;9.97;5.47;;;;;;;-5.36;86.11;101856.25;5011104;28;20032;-73
2022/03/12 05:09:46;;;;;;;13.23;6.40;;;;;;;-5.45;87.42;101851.69;5012505;28;20034;-73
2022/03/12 05:12:11;;;;;;;13.63;5.90;;;;;;;-5.34;87.74;101875.69;5029321;28;20021;-74
2022/03/12 05:14:37;;;;;;;13.00;6.20;;;;;;;-5.62;88.22;101816.91;5050503;28;20028;-74
2022/03/12 05:17:08;;;;;;;11.63;7.07;;;;;;;-5.38;87.40;101870.25;5050630;28;20446;-74
2022/03/12 05:19:36;;;;;;;11.40;5.97;;;;;;;-5.43;88.38;101857.81;5050002;28;20112;-74
2022/03/12 05:22:03;;;;;;;15.40;7.20;;;;;;;-5.37;87.72;101861.06;5050522;28;20033;-73
2022/03/12 05:24:29;;;;;;;9.73;5.67;;;;;;;-5.29;87.89;101867.97;5050602;28;20029;-73
2022/03/12 05:26:54;;;;;;;13.87;5.50;;;;;;;-5.17;87.58;101877.72;5050335;28;20564;-74
2022/03/12 05:29:22;;;;;;;22.03;9.60;;;;;;;-5.26;87.01;101847.28;5050443;28;20036;-73
2022/03/12 05:31:47;;;;;;;87.73;33.03;;;;;;;-5.06;87.17;101867.34;5014984;28;20049;-74
2022/03/12 05:34:12;;;;;;;32.33;15.30;;;;;;;-4.92;86.80;101892.59;5050236;28;20029;-73
2022/03/12 05:36:38;;;;;;;72.93;28.43;;;;;;;-4.78;87.17;101893.38;5050373;28;20024;-74
2022/03/12 05:39:03;;;;;;;15.87;8.47;;;;;;;-4.60;88.04;101892.16;5050121;28;20029;-74
2022/03/12 05:41:29;;;;;;;9.87;6.03;;;;;;;-4.58;87.21;101846.25;5032370;28;20127;-73
2022/03/12 05:43:56;;;;;;;9.13;4.80;;;;;;;-4.19;86.86;101878.53;5032484;28;20044;-74
2022/03/12 05:46:21;;;;;;;9.93;5.70;;;;;;;-3.87;87.48;101899.09;5050567;28;20085;-74
2022/03/12 05:48:47;;;;;;;11.67;5.83;;;;;;;-3.82;85.12;101876.94;5050476;28;20025;-74
2022/03/12 05:51:13;;;;;;;16.80;13.33;;;;;;;-3.56;83.84;101892.59;5032417;28;20021;-74
2022/03/12 05:53:39;;;;;;;9.33;4.97;;;;;;;-3.44;82.58;101898.16;5050665;28;20032;-74
2022/03/12 05:56:05;;;;;;;10.70;7.47;;;;;;;-3.51;82.62;101891.50;5050028;28;20021;-74
2022/03/12 05:58:38;;;;;;;14.67;8.40;;;;;;;-3.42;82.06;101899.25;5050202;28;20027;-74
2022/03/12 06:01:04;;;;;;;11.20;6.90;;;;;;;-3.56;80.78;101902.69;5050339;28;20519;-74
2022/03/12 06:03:31;;;;;;;10.83;7.70;;;;;;;-3.94;81.66;101844.53;5050246;28;20021;-74
2022/03/12 06:05:59;;;;;;;15.23;10.60;;;;;;;-3.52;81.55;101909.91;5049781;28;20056;-73
2022/03/12 06:08:26;;;;;;;13.90;8.47;;;;;;;-3.56;80.68;101907.75;5049950;28;20040;-74
2022/03/12 06:10:55;;;;;;;17.70;6.47;;;;;;;-3.86;83.48;101870.63;5049869;28;20029;-73
2022/03/12 06:13:25;;;;;;;8.10;4.47;;;;;;;-3.80;82.70;101904.16;5050116;28;20095;-77
2022/03/12 06:16:02;;;;;;;16.07;9.40;;;;;;;-3.91;83.34;101912.09;5049462;28;20151;-73
2022/03/12 06:18:34;;;;;;;19.87;8.27;;;;;;;-4.24;82.09;101861.97;5049902;28;20112;-73
2022/03/12 06:21:01;;;;;;;16.40;7.57;;;;;;;-3.87;82.25;101913.38;5049784;28;20025;-73
2022/03/12 06:23:27;;;;;;;10.73;6.50;;;;;;;-3.72;82.97;101931.94;5049756;28;20032;-73
2022/03/12 06:25:54;;;;;;;10.40;6.20;;;;;;;-3.58;83.87;101937.88;5049819;28;20025;-73
2022/03/12 06:28:22;;;;;;;9.77;6.33;;;;;;;-3.47;82.55;101918.91;5049872;28;20449;-74
2022/03/12 06:30:50;;;;;;;12.03;7.10;;;;;;;-3.20;81.43;101932.94;5050089;28;20029;-73
2022/03/12 06:33:19;;;;;;;11.07;6.27;;;;;;;-3.02;80.46;101929.09;5053425;28;20025;-74
2022/03/12 06:35:46;;;;;;;11.35;4.70;;;;;;;-3.02;79.73;101923.16;5053495;28;20040;-73
2022/03/12 06:38:12;;;;;;;8.87;5.87;;;;;;;-3.38;79.63;101872.72;5053416;28;20040;-74
2022/03/12 06:40:38;;;;;;;14.00;6.10;;;;;;;-3.03;78.83;101939.03;5053415;28;20033;-74
2022/03/12 06:43:07;;;;;;;12.87;5.80;;;;;;;-3.16;76.58;101921.56;5053524;28;20037;-73
2022/03/12 06:45:33;;;;;;;9.82;4.60;;;;;;;-3.09;76.51;101937.59;5053289;28;20388;-74
2022/03/12 06:47:59;;;;;;;11.10;5.90;;;;;;;-3.10;74.37;101943.38;5053151;28;20032;-74
2022/03/12 06:50:26;;;;;;;12.00;5.77;;;;;;;-3.10;74.84;101938.31;5053119;28;20018;-73
2022/03/12 06:52:53;;;;;;;9.70;5.63;;;;;;;-3.11;73.91;101931.47;5053202;28;20099;-74
2022/03/12 06:55:27;;;;;;;9.10;5.63;;;;;;;-2.98;73.81;101951.47;5053108;28;20025;-74
2022/03/12 06:57:54;;;;;;;12.57;6.30;;;;;;;-3.25;74.55;101896.16;5053094;28;20033;-74
2022/03/12 07:00:29;;;;;;;12.67;6.87;;;;;;;-3.00;74.74;101937.75;5053095;28;20091;-73
2022/03/12 07:02:56;;;;;;;10.83;5.80;;;;;;;-2.91;75.48;101949.66;5052807;28;20029;-74
2022/03/12 07:05:22;;;;;;;11.37;6.00;;;;;;;-2.99;74.95;101931.97;5048338;28;20061;-74
2022/03/12 07:07:49;;;;;;;10.27;5.80;;;;;;;-2.86;75.08;101949.44;5052880;28;20043;-74
2022/03/12 07:10:16;;;;;;;10.70;6.87;;;;;;;-2.88;73.81;101939.88;5047919;28;20040;-74
2022/03/12 07:12:45;;;;;;;17.57;6.47;;;;;;;-2.82;73.40;101931.34;5052898;28;20029;-73
2022/03/12 07:15:14;;;;;;;10.90;5.50;;;;;;;-2.74;73.09;101937.31;5034297;28;20411;-74
2022/03/12 07:17:43;;;;;;;11.77;6.22;;;;;;;-2.88;72.68;101935.72;5052855;28;20493;-74
2022/03/12 07:20:11;;;;;;;12.20;6.50;;;;;;;-2.83;73.50;101956.47;5052748;28;20033;-73
2022/03/12 07:22:37;;;;;;;17.53;8.77;;;;;;;-2.62;74.83;101953.88;5052659;28;20017;-74
2022/03/12 07:25:03;;;;;;;13.90;7.60;;;;;;;-2.66;73.63;101928.94;5052585;28;20028;-74
2022/03/12 07:27:28;;;;;;;13.40;6.30;;;;;;;-2.52;73.71;101950.72;5052507;28;20516;-74
2022/03/12 07:29:54;;;;;;;16.53;9.10;;;;;;;-2.50;70.54;101950.94;5034364;28;20029;-74
2022/03/12 07:32:20;;;;;;;10.43;5.50;;;;;;;-2.62;70.04;101963.06;5046306;28;20037;-74
2022/03/12 07:34:46;;;;;;;11.63;6.57;;;;;;;-2.78;71.53;101956.28;5052535;28;20041;-74
2022/03/12 07:37:12;;;;;;;17.17;7.83;;;;;;;-2.65;70.65;101956.03;5052374;28;20510;-74
2022/03/12 07:39:38;;;;;;;15.80;8.13;;;;;;;-2.39;70.90;101969.81;5052442;28;20040;-74
2022/03/12 07:42:05;;;;;;;14.37;7.27;;;;;;;-2.20;71.47;101977.88;5052241;28;20036;-75
2022/03/12 07:44:31;;;;;;;11.83;5.93;;;;;;;-2.19;69.91;101964.50;5051854;28;20052;-74
2022/03/12 07:46:57;;;;;;;15.23;7.17;;;;;;;-2.26;68.37;101965.41;5052430;28;20030;-74
2022/03/12 07:49:23;;;;;;;12.93;5.70;;;;;;;-2.36;67.77;101970.19;5052635;28;20070;-74
2022/03/12 07:51:50;;;;;;;11.37;5.87;;;;;;;-2.48;69.59;101970.59;5052150;28;20037;-75
2022/03/12 07:54:16;;;;;;;15.57;7.37;;;;;;;-2.36;70.02;101960.97;5052106;28;20028;-74
2022/03/12 07:56:42;;;;;;;14.07;7.47;;;;;;;-2.26;69.40;101970.47;5052152;28;20453;-75
2022/03/12 07:59:10;;;;;;;16.60;9.03;;;;;;;-2.12;71.22;101967.88;5016782;28;20049;-74
2022/03/12 08:01:35;;;;;;;19.60;8.80;;;;;;;-2.06;71.06;101966.75;5052028;28;20036;-75
2022/03/12 08:04:01;;;;;;;25.47;12.13;;;;;;;-1.88;71.14;101962.81;5051826;28;20041;-76
2022/03/12 08:06:28;;;;;;;14.50;8.47;;;;;;;-1.59;72.50;101967.69;5051813;28;20021;-76
2022/03/12 08:08:54;;;;;;;11.27;6.27;;;;;;;-1.52;68.07;101943.19;5051990;28;20018;-76
2022/03/12 08:11:28;;;;;;;9.13;5.30;;;;;;;-1.27;69.09;101971.22;5051750;28;20040;-75
2022/03/12 08:14:02;;;;;;;9.77;5.20;;;;;;;-1.61;65.68;101911.78;5051596;28;20492;-75
2022/03/12 08:16:33;;;;;;;11.87;5.17;;;;;;;-1.24;63.89;101953.78;5051700;28;20031;-75
2022/03/12 08:19:04;;;;;;;11.37;5.50;;;;;;;-1.01;65.29;101950.28;5033857;28;20025;-75
2022/03/12 08:21:30;;;;;;;9.57;5.20;;;;;;;-0.92;61.75;101973.19;5051446;28;20511;-74
2022/03/12 08:23:55;;;;;;;11.27;7.70;;;;;;;-0.83;61.63;101970.00;5051394;28;20094;-74
2022/03/12 08:26:21;;;;;;;11.17;6.10;;;;;;;-0.79;64.71;101955.13;5051319;28;20056;-74
2022/03/12 08:28:47;;;;;;;11.23;5.77;;;;;;;-0.95;59.71;101928.13;5051599;28;20033;-74
2022/03/12 08:31:13;;;;;;;9.03;5.07;;;;;;;-0.57;63.38;101976.97;5049849;28;20033;-74
2022/03/12 08:33:39;;;;;;;8.10;5.00;;;;;;;-0.30;63.61;101965.34;5051239;28;20518;-74
2022/03/12 08:36:06;;;;;;;12.77;5.73;;;;;;;-0.42;60.44;101976.78;5051289;28;20040;-74
2022/03/12 08:38:34;;;;;;;9.33;6.00;;;;;;;-0.61;60.73;101968.84;5051143;28;20618;-74
2022/03/12 08:41:00;;;;;;;9.80;5.37;;;;;;;-0.84;59.49;101939.41;5051412;28;20075;-74
2022/03/12 08:43:26;;;;;;;8.00;5.03;;;;;;;-0.76;60.33;101971.56;5051297;28;20033;-74
2022/03/12 08:45:51;;;;;;;11.00;6.03;;;;;;;-0.86;61.16;101969.69;5051296;28;20044;-74
2022/03/12 08:48:18;;;;;;;9.13;5.70;;;;;;;-0.89;61.63;101958.31;5050966;28;20037;-74
2022/03/12 08:50:45;;;;;;;10.03;5.20;;;;;;;-0.76;58.94;101981.72;5051035;28;20029;-74
2022/03/12 08:53:11;;;;;;;8.40;4.87;;;;;;;-1.09;58.32;101952.00;5015693;28;20479;-74
2022/03/12 08:55:38;;;;;;;13.50;7.27;;;;;;;-1.16;59.26;101941.94;5046854;28;20032;-74
2022/03/12 08:58:04;;;;;;;7.63;4.23;;;;;;;-1.14;59.08;101981.91;5051047;28;20047;-74
2022/03/12 09:00:31;;;;;;;9.23;3.90;;;;;;;-1.28;58.36;101959.25;5043843;28;20120;-74
2022/03/12 09:02:58;;;;;;;11.47;5.07;;;;;;;-1.25;59.84;101978.97;5049834;28;20112;-74
2022/03/12 09:05:26;;;;;;;8.73;4.90;;;;;;;-1.15;60.41;101979.22;5051111;28;20102;-74
2022/03/12 09:07:52;;;;;;;12.37;5.17;;;;;;;-1.08;60.28;101989.28;5050425;28;20036;-74
2022/03/12 09:10:20;;;;;;;6.47;3.67;;;;;;;-1.26;58.81;101977.16;5051127;28;20039;-74
2022/03/12 09:12:48;;;;;;;11.20;5.67;;;;;;;-1.10;59.52;101985.69;5008461;28;20050;-74
2022/03/12 09:15:14;;;;;;;9.40;4.93;;;;;;;-1.44;58.46;101936.44;5008261;28;20060;-74
2022/03/12 09:17:40;;;;;;;9.50;4.80;;;;;;;-1.01;58.89;101986.69;5008851;28;20455;-74
2022/03/12 09:20:09;;;;;;;9.53;4.50;;;;;;;-0.93;57.14;101990.03;4992227;28;20030;-73
2022/03/12 09:22:35;;;;;;;6.25;4.00;;;;;;;-0.87;57.84;101983.09;5005726;28;20042;-73
2022/03/12 09:25:02;;;;;;;8.57;4.33;;;;;;;-0.96;56.23;101978.66;4927974;28;20444;-74
2022/03/12 09:27:28;;;;;;;9.10;4.87;;;;;;;-1.08;56.88;101930.13;5008554;28;20034;-73
2022/03/12 09:29:55;;;;;;;11.07;5.50;;;;;;;-0.58;59.71;101981.88;5008623;28;20109;-73
2022/03/12 09:32:22;;;;;;;11.03;5.50;;;;;;;-0.42;59.97;101961.56;4973572;28;20042;-73
2022/03/12 09:34:51;;;;;;;9.63;5.23;;;;;;;-0.49;58.91;101942.25;4965871;28;20034;-73
2022/03/12 09:37:16;;;;;;;10.33;5.23;;;;;;;-0.45;58.38;101974.78;4999214;28;20025;-74
2022/03/12 09:39:42;;;;;;;12.90;5.13;;;;;;;-0.53;59.18;101962.97;4997398;28;20026;-73
2022/03/12 09:42:08;;;;;;;10.00;5.10;;;;;;;-0.51;59.57;101972.53;4998503;28;20030;-74
2022/03/12 09:44:33;;;;;;;9.73;5.80;;;;;;;-0.62;59.11;101952.75;5029782;28;20033;-73
2022/03/12 09:46:59;;;;;;;8.87;4.67;;;;;;;-0.41;59.37;101963.34;5036755;28;20416;-74
2022/03/12 09:49:25;;;;;;;9.13;4.90;;;;;;;-0.48;58.50;101981.22;5021840;28;20159;-73
2022/03/12 09:51:50;;;;;;;9.87;5.43;;;;;;;-0.35;59.74;101975.06;5039266;28;20483;-74
2022/03/12 09:54:18;;;;;;;8.43;4.57;;;;;;;-0.75;57.48;101957.25;5040642;28;20064;-75
2022/03/12 09:56:43;;;;;;;12.23;6.17;;;;;;;-0.72;59.37;101957.59;4987112;28;20071;-73
2022/03/12 09:59:09;;;;;;;8.63;5.00;;;;;;;-0.62;58.29;101960.34;5040943;28;20380;-74
2022/03/12 10:01:34;;;;;;;10.43;5.73;;;;;;;-0.82;58.89;101915.13;5040962;28;20032;-73
2022/03/12 10:04:00;;;;;;;8.97;4.33;;;;;;;-0.89;58.65;101933.84;5002612;28;20172;-73
2022/03/12 10:06:26;;;;;;;11.20;7.03;;;;;;;-0.59;58.79;101973.34;5015888;28;20029;-74
2022/03/12 10:08:55;;;;;;;10.50;6.20;;;;;;;-0.46;60.67;101959.41;5022945;28;20098;-74
2022/03/12 10:11:21;;;;;;;10.13;5.35;;;;;;;-0.27;59.69;101958.09;5019795;28;20053;-74
2022/03/12 10:13:46;;;;;;;9.37;5.27;;;;;;;-0.34;58.07;101963.25;5017568;28;20098;-75
2022/03/12 10:16:13;;;;;;;12.00;6.20;;;;;;;-0.34;58.20;101950.56;5024256;28;20030;-75
2022/03/12 10:18:38;;;;;;;10.87;5.30;;;;;;;-0.40;57.93;101939.75;5023164;28;20033;-75
2022/03/12 10:21:04;;;;;;;9.93;5.00;;;;;;;-0.51;57.55;101901.50;5024692;28;20029;-74
2022/03/12 10:23:31;;;;;;;8.67;4.93;;;;;;;-0.29;58.48;101931.63;5025699;28;20079;-75
2022/03/12 10:25:57;;;;;;;8.13;4.90;;;;;;;-0.09;59.22;101932.81;5019813;28;20075;-75
2022/03/12 10:28:23;;;;;;;10.60;4.40;;;;;;;0.05;59.68;101918.97;5019894;28;20037;-75
2022/03/12 10:30:48;;;;;;;9.17;4.53;;;;;;;0.34;61.02;101916.88;5005256;28;20030;-80
2022/03/12 10:33:25;;;;;;;7.03;4.23;;;;;;;0.22;57.83;101919.06;4996856;28;20030;-78
2022/03/12 10:35:52;;;;;;;9.17;4.50;;;;;;;0.16;58.78;101920.97;4995254;28;20097;-81
2022/03/12 10:38:18;;;;;;;9.47;3.90;;;;;;;0.54;55.92;101918.88;5023414;28;20169;-80
2022/03/12 10:40:45;;;;;;;10.87;5.23;;;;;;;0.42;57.40;101923.63;5026669;28;20117;-79
2022/03/12 10:43:14;;;;;;;9.37;4.50;;;;;;;0.36;56.14;101894.16;5004855;28;20034;-79
2022/03/12 10:45:44;;;;;;;10.57;5.82;;;;;;;0.73;58.05;101901.28;5024412;28;20061;-80
2022/03/12 10:48:10;;;;;;;7.30;4.13;;;;;;;0.74;55.16;101876.78;5017271;28;20067;-80
2022/03/12 10:50:45;;;;;;;10.90;6.00;;;;;;;0.94;54.91;101916.88;5019423;28;20029;-79
2022/03/12 10:53:13;;;;;;;8.83;4.43;;;;;;;0.74;52.13;101910.72;5022828;28;20432;-79
2022/03/12 10:55:51;;;;;;;9.37;5.67;;;;;;;0.60;54.73;101906.81;5028337;28;20021;-77
2022/03/12 10:58:26;;;;;;;9.03;5.50;;;;;;;1.01;57.19;101914.22;5032970;28;20029;-78
2022/03/12 11:00:59;;;;;;;10.70;5.60;;;;;;;0.81;54.07;101922.41;5033265;28;20036;-80
2022/03/12 11:03:33;;;;;;;9.17;5.10;;;;;;;0.52;53.64;101911.84;5007852;28;20099;-76
2022/03/12 11:06:00;;;;;;;7.60;4.47;;;;;;;0.28;54.61;101916.25;5008905;28;20169;-76
2022/03/12 11:08:31;;;;;;;8.03;4.63;;;;;;;0.18;53.96;101921.16;5012549;28;20382;-78
2022/03/12 11:10:59;;;;;;;7.73;4.57;;;;;;;-0.02;56.12;101931.06;5013224;28;20715;-77
2022/03/12 11:13:46;;;;;;;7.50;4.00;;;;;;;-0.01;55.78;101924.34;5011163;28;20536;-79
2022/03/12 11:16:32;;;;;;;9.37;4.53;;;;;;;0.02;55.61;101919.56;5011578;28;20026;-78
2022/03/12 11:19:11;;;;;;;8.73;4.80;;;;;;;-0.15;54.79;101891.56;5010191;28;20041;-78
2022/03/12 11:21:43;;;;;;;13.77;5.77;;;;;;;0.09;55.53;101923.66;5011232;28;20121;-79